Time;durP1;ratioP1;P1;durP2;ratioP2;P2;SDS_P1;SDS_P2;PMS_P1;PMS_P2;Temp;Humidity;BMP_temperature;BMP_pressure;BME280_temperature;BME280_humidity;BME280_pressure;Samples;Min_cycle;Max_cycle;Signal;HPM_P1;HPM_P2
2022/09/10 00:00:25;;;;;;;24.70;15.27;;;6.60;99.90;;;;;;6103750;23;20386;-74
2022/09/10 00:02:52;;;;;;;22.73;14.30;;;6.60;99.90;;;;;;6128659;23;20423;-73
2022/09/10 00:05:20;;;;;;;25.85;15.45;;;6.50;99.90;;;;;;6154029;23;20036;-74
2022/09/10 00:07:47;;;;;;;29.10;16.02;;;6.50;99.90;;;;;;6154249;23;20022;-74
2022/09/10 00:10:14;;;;;;;26.00;14.55;;;6.50;99.90;;;;;;6128022;23;20069;-73
2022/09/10 00:12:41;;;;;;;25.80;16.65;;;6.50;99.90;;;;;;6154443;23;20029;-74
2022/09/10 00:15:11;;;;;;;33.55;15.77;;;6.50;99.90;;;;;;6127110;23;20423;-74
2022/09/10 00:17:39;;;;;;;23.25;13.98;;;6.40;99.90;;;;;;6154149;23;20033;-74
2022/09/10 00:20:09;;;;;;;29.65;15.35;;;6.40;99.90;;;;;;6127445;23;20025;-73
2022/09/10 00:22:36;;;;;;;21.75;13.40;;;6.40;99.90;;;;;;6128338;23;20025;-73
2022/09/10 00:25:04;;;;;;;28.42;15.65;;;6.40;99.90;;;;;;6152645;23;20021;-74
2022/09/10 00:27:32;;;;;;;28.95;14.73;;;6.40;99.90;;;;;;6127403;23;20100;-74
2022/09/10 00:30:00;;;;;;;26.60;15.02;;;6.40;99.90;;;;;;6128245;23;20025;-74
2022/09/10 00:32:28;;;;;;;24.58;14.75;;;6.40;99.90;;;;;;6102796;23;20025;-74
2022/09/10 00:34:59;;;;;;;22.88;14.73;;;6.30;99.90;;;;;;6128037;23;20029;-74
2022/09/10 00:37:26;;;;;;;22.02;12.07;;;6.30;99.90;;;;;;6154170;23;20355;-74
2022/09/10 00:39:55;;;;;;;18.10;11.73;;;6.30;99.90;;;;;;6153600;23;20387;-74
2022/09/10 00:42:23;;;;;;;22.92;12.82;;;6.30;99.90;;;;;;6127404;23;20021;-73
2022/09/10 00:45:01;;;;;;;23.60;12.57;;;6.40;99.90;;;;;;6153957;23;20451;-73
2022/09/10 00:47:35;;;;;;;23.63;11.90;;;6.40;99.90;;;;;;6128246;23;20065;-73
2022/09/10 00:50:18;;;;;;;23.42;12.48;;;6.40;99.90;;;;;;6153793;23;20072;-73
2022/09/10 00:52:46;;;;;;;;;;;6.40;99.90;;;;;;6155336;23;20028;-81
2022/09/10 00:55:15;;;;;;;26.42;11.98;;;6.40;99.90;;;;;;6152069;23;19920;-80
2022/09/10 00:57:44;;;;;;;23.58;12.48;;;6.40;99.90;;;;;;6154631;23;20026;-80
2022/09/10 01:00:14;;;;;;;21.27;11.85;;;6.40;99.90;;;;;;6127150;23;20029;-79
2022/09/10 01:02:43;;;;;;;27.50;12.98;;;6.40;99.90;;;;;;6152124;23;20026;-79
2022/09/10 01:05:13;;;;;;;22.25;12.23;;;6.40;99.90;;;;;;6102922;23;20025;-79
2022/09/10 01:07:41;;;;;;;21.40;11.60;;;6.50;99.90;;;;;;6103786;23;20028;-80
2022/09/10 01:10:13;;;;;;;17.77;11.60;;;6.40;99.90;;;;;;6153723;23;20048;-80
2022/09/10 01:13:03;;;;;;;18.45;12.10;;;6.50;99.90;;;;;;6127801;23;20018;-79
2022/09/10 01:15:39;;;;;;;27.00;11.82;;;6.50;99.90;;;;;;6103785;23;20355;-79
2022/09/10 01:18:27;;;;;;;28.08;13.07;;;6.50;99.90;;;;;;6103452;23;20026;-80
2022/09/10 01:21:08;;;;;;;27.30;12.40;;;6.50;99.90;;;;;;6128098;23;20350;-80
2022/09/10 01:24:19;;;;;;;20.58;11.68;;;6.50;99.90;;;;;;6103393;23;20025;-81
2022/09/10 01:27:41;;;;;;;21.25;11.38;;;6.50;99.90;;;;;;6126179;23;20021;-80
2022/09/10 01:30:14;;;;;;;21.98;12.55;;;6.40;99.90;;;;;;6127715;23;20049;-80
2022/09/10 01:33:02;;;;;;;19.02;11.55;;;6.30;99.90;;;;;;6127847;23;20040;-79
2022/09/10 01:35:42;;;;;;;21.33;12.65;;;6.30;99.90;;;;;;6127081;23;20024;-80
2022/09/10 01:38:15;;;;;;;25.02;11.70;;;6.30;99.90;;;;;;6103190;23;20076;-79
2022/09/10 01:40:46;;;;;;;28.60;13.40;;;6.30;99.90;;;;;;6127206;23;20036;-79
2022/09/10 01:43:19;;;;;;;22.50;12.75;;;6.30;99.90;;;;;;6127468;23;20253;-80
2022/09/10 01:46:06;;;;;;;23.73;12.25;;;6.20;99.90;;;;;;6126974;23;20022;-80
2022/09/10 01:49:05;;;;;;;21.25;12.60;;;6.20;99.90;;;;;;6153716;23;20109;-80
2022/09/10 01:51:49;;;;;;;24.58;12.07;;;6.20;99.90;;;;;;6127608;23;20033;-80
2022/09/10 01:54:26;;;;;;;;;;;6.10;99.90;;;;;;6153458;23;20021;-79
2022/09/10 01:57:07;;;;;;;25.17;12.48;;;6.10;99.90;;;;;;6128043;23;19921;-79
2022/09/10 01:59:45;;;;;;;26.38;13.30;;;6.00;99.90;;;;;;6154045;23;20088;-81
2022/09/10 02:02:21;;;;;;;25.60;13.18;;;6.00;99.90;;;;;;6126721;23;20529;-80
2022/09/10 02:04:50;;;;;;;20.83;12.00;;;6.00;99.90;;;;;;6153186;23;20080;-80
2022/09/10 02:07:22;;;;;;;20.30;12.15;;;6.00;99.90;;;;;;6152686;23;20072;-79
2022/09/10 02:09:51;;;;;;;;;;;6.00;99.90;;;;;;6128236;23;20028;-80
2022/09/10 02:12:20;;;;;;;20.80;12.63;;;5.90;99.90;;;;;;6127188;23;20344;-80
2022/09/10 02:14:56;;;;;;;25.15;11.70;;;5.90;99.90;;;;;;6127088;23;20554;-80
2022/09/10 02:17:45;;;;;;;23.45;12.15;;;5.90;99.90;;;;;;6152588;23;20032;-80
2022/09/10 02:20:14;;;;;;;18.98;11.77;;;5.90;99.90;;;;;;6127354;23;20104;-79
2022/09/10 02:22:48;;;;;;;21.77;11.98;;;5.80;99.90;;;;;;6101996;23;20025;-80
2022/09/10 02:25:16;;;;;;;22.95;11.75;;;5.80;99.90;;;;;;6102831;23;20036;-80
2022/09/10 02:27:43;;;;;;;30.23;12.93;;;5.80;99.90;;;;;;6152605;23;20025;-77
2022/09/10 02:30:12;;;;;;;20.98;11.77;;;5.80;99.90;;;;;;6127034;23;20021;-79
2022/09/10 02:32:40;;;;;;;23.20;12.30;;;5.80;99.90;;;;;;6151470;23;20025;-79
2022/09/10 02:35:08;;;;;;;20.55;12.23;;;5.70;99.90;;;;;;6126320;23;20031;-79
2022/09/10 02:37:36;;;;;;;26.95;12.50;;;5.70;99.90;;;;;;6154915;23;20108;-80
2022/09/10 02:40:05;;;;;;;22.60;12.18;;;5.70;99.90;;;;;;6153484;23;20026;-78
2022/09/10 02:42:33;;;;;;;25.40;11.57;;;5.70;99.90;;;;;;6152846;23;20025;-79
2022/09/10 02:45:00;;;;;;;22.77;11.65;;;5.70;99.90;;;;;;6127102;23;20154;-72
2022/09/10 02:47:29;;;;;;;22.40;12.07;;;5.70;99.90;;;;;;6153152;23;20029;-73
2022/09/10 02:49:57;;;;;;;23.75;11.35;;;5.60;99.90;;;;;;6126269;23;20071;-72
2022/09/10 02:52:24;;;;;;;26.02;12.45;;;5.60;99.90;;;;;;6152867;23;20026;-73
2022/09/10 02:54:52;;;;;;;19.17;11.20;;;5.60;99.90;;;;;;6126009;23;20025;-73
2022/09/10 02:57:19;;;;;;;17.85;11.85;;;5.60;99.90;;;;;;6126005;23;20026;-73
2022/09/10 02:59:48;;;;;;;19.58;10.93;;;5.60;99.90;;;;;;6152748;23;20109;-73
2022/09/10 03:02:17;;;;;;;27.40;11.85;;;5.60;99.90;;;;;;6151960;23;20056;-73
2022/09/10 03:04:45;;;;;;;25.55;12.30;;;5.60;99.90;;;;;;6127832;23;20025;-73
2022/09/10 03:07:15;;;;;;;23.40;11.48;;;5.60;99.90;;;;;;6127818;23;20025;-73
2022/09/10 03:09:45;;;;;;;17.45;10.90;;;5.60;99.90;;;;;;6154718;23;20018;-73
2022/09/10 03:12:12;;;;;;;20.13;11.02;;;5.60;99.90;;;;;;6128791;23;20518;-73
2022/09/10 03:14:39;;;;;;;23.05;12.48;;;5.50;99.90;;;;;;6128418;23;20044;-73
2022/09/10 03:17:08;;;;;;;19.33;11.25;;;5.50;99.90;;;;;;6127992;23;20021;-73
2022/09/10 03:19:36;;;;;;;30.08;11.57;;;5.50;99.90;;;;;;6128825;23;20094;-72
2022/09/10 03:22:04;;;;;;;22.55;11.10;;;5.50;99.90;;;;;;6154272;23;20394;-73
2022/09/10 03:24:33;;;;;;;20.35;10.98;;;5.50;99.90;;;;;;6128193;23;20475;-72
2022/09/10 03:27:00;;;;;;;20.70;10.55;;;5.50;99.90;;;;;;6103512;23;20447;-72
2022/09/10 03:29:28;;;;;;;26.08;11.70;;;5.50;99.90;;;;;;6127934;23;20096;-72
2022/09/10 03:31:56;;;;;;;17.02;11.02;;;5.40;99.90;;;;;;6128434;23;20021;-72
2022/09/10 03:34:24;;;;;;;23.15;11.30;;;5.40;99.90;;;;;;6127071;23;20021;-72
2022/09/10 03:36:51;;;;;;;23.23;11.50;;;5.40;99.90;;;;;;6127838;23;20022;-72
2022/09/10 03:39:21;;;;;;;17.88;10.80;;;5.40;99.90;;;;;;6128098;23;20032;-73
2022/09/10 03:41:48;;;;;;;20.98;10.77;;;5.40;99.90;;;;;;6154398;23;20026;-72
2022/09/10 03:44:18;;;;;;;21.65;10.88;;;5.40;99.90;;;;;;6102878;23;20025;-74
2022/09/10 03:46:49;;;;;;;19.02;10.68;;;5.40;99.90;;;;;;6128455;23;20022;-73
2022/09/10 03:49:18;;;;;;;21.77;10.18;;;5.40;99.90;;;;;;6128287;23;20549;-73
2022/09/10 03:51:47;;;;;;;18.63;11.52;;;5.40;99.90;;;;;;6153949;23;20021;-73
2022/09/10 03:54:15;;;;;;;17.60;10.68;;;5.40;99.90;;;;;;6127781;23;20029;-73
2022/09/10 03:56:44;;;;;;;21.25;10.80;;;5.40;99.90;;;;;;6128133;23;20434;-73
2022/09/10 03:59:12;;;;;;;23.08;11.70;;;5.40;99.90;;;;;;6154052;23;20523;-74
2022/09/10 04:01:40;;;;;;;16.67;10.35;;;5.40;99.90;;;;;;6127457;23;20196;-73
2022/09/10 04:04:09;;;;;;;23.95;10.82;;;5.40;99.90;;;;;;6103493;23;20355;-74
2022/09/10 04:06:37;;;;;;;17.77;9.38;;;5.40;99.90;;;;;;6128221;23;20122;-73
2022/09/10 04:09:05;;;;;;;16.75;10.70;;;5.40;99.90;;;;;;6127932;23;20026;-74
2022/09/10 04:11:32;;;;;;;17.42;10.27;;;5.40;99.90;;;;;;6153981;23;20025;-74
2022/09/10 04:14:01;;;;;;;20.40;10.63;;;5.40;99.90;;;;;;6127791;23;20025;-73
2022/09/10 04:16:30;;;;;;;17.33;10.65;;;5.40;99.90;;;;;;6127953;23;20022;-73
2022/09/10 04:19:05;;;;;;;20.13;11.27;;;5.40;99.90;;;;;;6126565;23;20362;-73
2022/09/10 04:21:32;;;;;;;23.33;10.65;;;5.40;99.90;;;;;;6127340;23;20150;-74
2022/09/10 04:24:00;;;;;;;18.90;10.75;;;5.40;99.90;;;;;;6154719;23;20398;-80
2022/09/10 04:26:27;;;;;;;15.65;10.05;;;5.40;99.90;;;;;;6128639;23;20030;-74
2022/09/10 04:28:55;;;;;;;17.70;10.52;;;5.40;99.90;;;;;;6126296;23;20076;-73
2022/09/10 04:31:24;;;;;;;19.73;10.48;;;5.50;99.90;;;;;;6127481;23;20455;-73
2022/09/10 04:33:58;;;;;;;23.05;11.23;;;5.50;99.90;;;;;;6126811;23;20053;-73
2022/09/10 04:36:29;;;;;;;19.52;10.95;;;5.50;99.90;;;;;;6126434;23;20021;-73
2022/09/10 04:39:00;;;;;;;19.58;11.00;;;5.60;99.90;;;;;;6125416;23;20026;-73
2022/09/10 04:41:29;;;;;;;18.38;10.27;;;5.60;99.90;;;;;;6124437;23;20100;-73
2022/09/10 04:43:57;;;;;;;19.08;9.90;;;5.60;99.90;;;;;;6099889;23;20551;-73
2022/09/10 04:46:26;;;;;;;22.83;10.68;;;5.60;99.90;;;;;;6124917;23;20064;-72
2022/09/10 04:48:57;;;;;;;21.33;10.73;;;5.60;99.90;;;;;;6126020;23;20053;-72
2022/09/10 04:51:25;;;;;;;20.00;10.88;;;5.70;99.90;;;;;;6102220;23;20032;-73
2022/09/10 04:53:54;;;;;;;23.92;10.25;;;5.70;99.90;;;;;;6154135;23;20025;-73
2022/09/10 04:56:27;;;;;;;16.60;10.35;;;5.70;99.90;;;;;;6127659;23;20017;-72
2022/09/10 04:58:55;;;;;;;15.18;10.38;;;5.70;99.90;;;;;;6102415;23;20021;-73
2022/09/10 05:01:24;;;;;;;20.48;10.95;;;5.70;99.90;;;;;;6127269;23;20360;-77
2022/09/10 05:03:53;;;;;;;27.10;11.63;;;5.80;99.90;;;;;;6126675;23;20406;-73
2022/09/10 05:06:22;;;;;;;19.95;11.75;;;5.80;99.90;;;;;;6127587;23;20040;-73
2022/09/10 05:08:49;;;;;;;28.30;16.77;;;5.80;99.90;;;;;;6126654;23;20021;-72
2022/09/10 05:11:18;;;;;;;22.73;11.85;;;5.90;99.90;;;;;;6126793;23;20037;-74
2022/09/10 05:13:46;;;;;;;20.15;11.48;;;5.90;99.90;;;;;;6126692;23;20344;-74
2022/09/10 05:16:17;;;;;;;22.90;11.23;;;6.00;99.90;;;;;;6127921;23;20029;-72
2022/09/10 05:18:46;;;;;;;19.42;10.05;;;6.10;99.90;;;;;;6127595;23;20032;-73
2022/09/10 05:21:17;;;;;;;20.60;10.88;;;6.10;99.90;;;;;;6127981;23;20056;-74
2022/09/10 05:23:44;;;;;;;20.35;11.27;;;6.20;99.90;;;;;;6150800;23;20029;-74
2022/09/10 05:26:12;;;;;;;27.23;11.27;;;6.30;99.90;;;;;;6123689;23;20332;-73
2022/09/10 05:28:39;;;;;;;59.45;16.67;;;6.30;99.90;;;;;;6125545;23;20362;-74
2022/09/10 05:31:08;;;;;;;23.23;10.57;;;6.40;99.90;;;;;;6101368;23;20034;-74
2022/09/10 05:33:39;;;;;;;19.88;10.88;;;6.50;99.90;;;;;;6150732;23;20021;-74
2022/09/10 05:36:10;;;;;;;17.42;10.57;;;6.50;99.90;;;;;;6125604;23;20060;-74
2022/09/10 05:38:39;;;;;;;20.25;9.55;;;6.60;99.90;;;;;;6125237;23;20109;-74
2022/09/10 05:41:09;;;;;;;16.48;10.43;;;6.70;99.90;;;;;;6123819;23;20104;-74
2022/09/10 05:43:37;;;;;;;18.85;10.18;;;6.80;99.90;;;;;;6124069;23;20056;-73
2022/09/10 05:46:05;;;;;;;18.08;9.43;;;6.90;99.90;;;;;;6124023;23;20021;-74
2022/09/10 05:48:33;;;;;;;20.55;10.65;;;6.90;99.90;;;;;;6125412;23;20439;-74
2022/09/10 05:51:01;;;;;;;16.10;9.35;;;7.00;99.90;;;;;;6153688;23;20022;-74
2022/09/10 05:53:31;;;;;;;19.15;9.88;;;7.10;99.90;;;;;;6126785;23;20025;-75
2022/09/10 05:55:59;;;;;;;18.25;9.75;;;7.20;99.90;;;;;;6102602;23;20022;-74
2022/09/10 05:58:28;;;;;;;18.13;9.90;;;7.40;99.90;;;;;;6128362;23;20018;-83
2022/09/10 06:00:59;;;;;;;23.85;9.95;;;7.70;99.90;;;;;;6103297;23;20036;-80
2022/09/10 06:03:26;;;;;;;15.48;8.57;;;8.60;99.90;;;;;;6153573;23;20340;-79
2022/09/10 06:05:58;;;;;;;17.85;9.05;;;9.50;99.90;;;;;;6127757;23;20097;-80
2022/09/10 06:08:31;;;;;;;17.50;9.15;;;10.40;99.90;;;;;;6127289;23;20474;-79
2022/09/10 06:11:03;;;;;;;18.25;8.95;;;11.40;99.90;;;;;;6126241;23;20026;-81
2022/09/10 06:13:41;;;;;;;17.33;10.00;;;12.30;99.90;;;;;;6127452;23;20022;-73
2022/09/10 06:16:09;;;;;;;17.73;9.20;;;13.10;99.90;;;;;;6154283;23;20025;-72
2022/09/10 06:18:37;;;;;;;14.10;9.77;;;14.00;99.90;;;;;;6127972;23;20113;-73
2022/09/10 06:21:09;;;;;;;13.40;9.38;;;14.60;99.90;;;;;;6126790;23;20029;-72
2022/09/10 06:23:38;;;;;;;27.83;10.45;;;15.00;99.90;;;;;;6153145;23;20565;-74
2022/09/10 06:26:11;;;;;;;19.70;10.65;;;15.40;99.90;;;;;;6153478;23;20045;-72
2022/09/10 06:28:42;;;;;;;23.88;11.68;;;15.90;99.90;;;;;;6103171;23;20017;-73
2022/09/10 06:31:13;;;;;;;27.90;11.50;;;16.20;99.90;;;;;;6153520;23;20028;-74
2022/09/10 06:33:40;;;;;;;16.60;10.25;;;16.70;99.90;;;;;;6102469;23;20021;-73
2022/09/10 06:36:10;;;;;;;22.30;11.75;;;17.30;99.90;;;;;;6102659;23;20029;-79
2022/09/10 06:38:40;;;;;;;24.27;12.32;;;17.80;99.90;;;;;;6128005;23;20022;-80
2022/09/10 06:41:12;;;;;;;22.13;11.35;;;;;;;;;;6151980;23;20033;-79
2022/09/10 06:43:50;;;;;;;26.38;13.30;;;18.80;99.90;;;;;;6127079;23;20036;-79
2022/09/10 06:46:30;;;;;;;24.27;11.90;;;19.20;99.90;;;;;;6151877;23;20029;-79
2022/09/10 06:49:05;;;;;;;25.27;13.00;;;19.50;99.90;;;;;;6127405;23;20025;-79
2022/09/10 06:51:35;;;;;;;22.13;11.48;;;19.70;99.90;;;;;;6127333;23;20021;-80
2022/09/10 06:54:06;;;;;;;20.73;11.63;;;20.10;97.50;;;;;;6128049;23;20108;-80
2022/09/10 06:56:35;;;;;;;22.67;12.52;;;20.60;96.40;;;;;;6128099;23;20510;-79
2022/09/10 06:59:04;;;;;;;19.27;10.32;;;21.00;92.90;;;;;;6102882;23;20018;-72
2022/09/10 07:01:38;;;;;;;17.77;9.85;;;21.60;90.30;;;;;;6126727;23;20546;-72
2022/09/10 07:04:05;;;;;;;17.27;9.45;;;21.90;88.60;;;;;;6125923;23;20614;-72
2022/09/10 07:06:35;;;;;;;15.85;9.13;;;22.10;86.20;;;;;;6127645;23;20104;-73
2022/09/10 07:09:14;;;;;;;18.23;8.93;;;22.30;82.90;;;;;;6127213;23;20089;-74
2022/09/10 07:12:03;;;;;;;18.17;9.07;;;22.20;81.60;;;;;;6151837;23;20125;-72
2022/09/10 07:14:36;;;;;;;22.23;9.27;;;22.10;82.90;;;;;;6125553;23;20083;-72
2022/09/10 07:17:07;;;;;;;17.83;8.63;;;22.30;81.70;;;;;;6125546;23;20554;-72
2022/09/10 07:19:36;;;;;;;16.88;8.48;;;22.60;79.20;;;;;;6127007;23;20064;-73
2022/09/10 07:22:08;;;;;;;17.75;8.68;;;22.90;77.20;;;;;;6152196;23;20108;-79
2022/09/10 07:24:38;;;;;;;16.98;8.48;;;23.30;76.20;;;;;;6126083;23;20029;-80
2022/09/10 07:27:09;;;;;;;17.23;8.38;;;23.70;73.90;;;;;;6126942;23;20061;-80
2022/09/10 07:29:38;;;;;;;20.85;8.43;;;24.00;72.10;;;;;;6151309;23;20030;-80
2022/09/10 07:32:10;;;;;;;17.50;8.77;;;23.90;69.80;;;;;;6126855;23;20021;-81
2022/09/10 07:34:38;;;;;;;16.52;7.88;;;23.60;70.10;;;;;;6150830;23;20037;-80
2022/09/10 07:37:06;;;;;;;21.65;8.60;;;23.80;72.60;;;;;;6127060;23;20026;-79
2022/09/10 07:39:34;;;;;;;14.90;7.50;;;24.10;69.70;;;;;;6127538;23;20025;-73
2022/09/10 07:42:05;;;;;;;15.18;6.93;;;24.10;69.60;;;;;;6127224;23;20026;-74
2022/09/10 07:44:36;;;;;;;18.10;6.40;;;24.70;67.00;;;;;;6102591;23;20109;-72
2022/09/10 07:47:04;;;;;;;12.05;6.70;;;25.30;63.80;;;;;;6101829;23;20025;-75
2022/09/10 07:49:33;;;;;;;13.88;7.18;;;25.70;62.20;;;;;;6127680;23;20355;-78
2022/09/10 07:52:01;;;;;;;8.00;6.30;;;25.30;61.60;;;;;;6128456;23;20029;-80
2022/09/10 07:54:35;;;;;;;16.85;9.38;;;24.90;61.70;;;;;;6129064;23;20017;-78
2022/09/10 07:57:07;;;;;;;21.92;11.65;;;23.40;66.20;;;;;;6104032;23;20025;-80
2022/09/10 07:59:36;;;;;;;16.25;7.65;;;23.10;69.30;;;;;;6128471;23;20029;-79
2022/09/10 08:02:08;;;;;;;18.48;7.05;;;23.40;70.00;;;;;;6154250;23;20100;-79
2022/09/10 08:04:37;;;;;;;14.07;6.57;;;23.50;66.30;;;;;;6128742;23;20045;-72
2022/09/10 08:07:08;;;;;;;13.18;5.43;;;23.30;67.20;;;;;;6128408;23;20026;-73
2022/09/10 08:09:43;;;;;;;14.88;6.00;;;23.60;65.70;;;;;;6104270;23;20018;-83
2022/09/10 08:12:24;;;;;;;9.13;4.85;;;24.30;64.50;;;;;;6128629;23;20025;-79
2022/09/10 08:14:56;;;;;;;16.15;6.03;;;24.90;59.30;;;;;;6126817;23;20505;-75
2022/09/10 08:17:24;;;;;;;12.85;5.82;;;24.70;59.80;;;;;;6127323;23;20025;-74
2022/09/10 08:19:52;;;;;;;10.05;5.78;;;24.40;60.00;;;;;;6128504;23;20032;-79
2022/09/10 08:22:21;;;;;;;8.35;4.90;;;23.60;62.10;;;;;;6128099;23;20439;-80
2022/09/10 08:24:57;;;;;;;14.48;7.35;;;23.10;63.30;;;;;;6127576;23;20414;-79
2022/09/10 08:27:33;;;;;;;12.02;5.40;;;23.80;64.20;;;;;;6127972;23;20036;-83
2022/09/10 08:30:04;;;;;;;10.60;5.35;;;24.70;63.70;;;;;;6154108;23;20117;-82
2022/09/10 08:32:32;;;;;;;18.35;5.88;;;25.20;59.70;;;;;;6130194;23;20021;-80
2022/09/10 08:34:59;;;;;;;11.07;5.15;;;25.90;61.00;;;;;;6127314;23;20026;-80
2022/09/10 08:37:29;;;;;;;12.73;5.45;;;26.70;57.40;;;;;;6126291;23;20108;-75
2022/09/10 08:39:57;;;;;;;16.33;4.65;;;26.90;55.90;;;;;;6124892;23;20478;-73
2022/09/10 08:42:38;;;;;;;10.13;4.88;;;27.10;55.50;;;;;;6100825;23;20049;-74
2022/09/10 08:45:14;;;;;;;19.10;4.38;;;27.60;54.60;;;;;;6151099;23;20064;-74
2022/09/10 08:47:53;;;;;;;11.07;4.15;;;27.50;54.00;;;;;;6152642;23;20028;-75
2022/09/10 08:50:31;;;;;;;13.98;3.83;;;27.50;54.60;;;;;;6150591;23;20025;-74
2022/09/10 08:53:17;;;;;;;7.13;2.50;;;28.20;52.30;;;;;;6151814;23;20025;-76
2022/09/10 08:55:46;;;;;;;9.43;3.13;;;28.80;50.80;;;;;;6126018;23;20463;-77
2022/09/10 08:58:22;;;;;;;5.68;2.55;;;29.20;50.40;;;;;;6125680;23;20028;-75
2022/09/10 09:00:58;;;;;;;2.78;2.50;;;29.30;50.00;;;;;;6126001;23;20021;-76
2022/09/10 09:03:34;;;;;;;7.72;3.35;;;29.50;48.90;;;;;;6125810;23;20048;-76
2022/09/10 09:06:05;;;;;;;11.55;2.40;;;29.50;49.60;;;;;;6126236;23;20112;-81
2022/09/10 09:08:47;;;;;;;7.80;1.80;;;29.90;48.90;;;;;;6126354;23;20025;-80
2022/09/10 09:11:32;;;;;;;4.57;1.90;;;30.20;47.50;;;;;;6125901;23;20112;-78
2022/09/10 09:14:22;;;;;;;5.78;1.73;;;29.60;48.40;;;;;;6150924;23;20029;-79
2022/09/10 09:17:07;;;;;;;3.50;1.83;;;29.40;49.10;;;;;;6150667;23;20030;-82
2022/09/10 09:19:44;;;;;;;6.18;2.00;;;29.50;49.60;;;;;;6125463;23;20025;-81
2022/09/10 09:22:19;;;;;;;7.95;1.90;;;29.60;48.60;;;;;;6125189;23;20407;-73
2022/09/10 09:24:57;;;;;;;8.40;2.10;;;29.00;48.60;;;;;;6150865;23;20029;-79
2022/09/10 09:27:27;;;;;;;5.40;1.65;;;28.90;48.60;;;;;;6102181;23;20518;-80
2022/09/10 09:30:01;;;;;;;6.13;2.00;;;29.20;48.40;;;;;;6153657;23;20116;-79
2022/09/10 09:32:36;;;;;;;4.50;2.03;;;30.00;47.60;;;;;;6125833;23;20056;-79
2022/09/10 09:35:22;;;;;;;4.22;1.58;;;30.10;48.50;;;;;;6126226;23;20033;-81
2022/09/10 09:38:04;;;;;;;3.92;1.45;;;28.70;49.30;;;;;;6126813;23;20025;-80
2022/09/10 09:40:40;;;;;;;7.50;1.80;;;27.00;50.80;;;;;;6127449;23;20080;-80
2022/09/10 09:43:22;;;;;;;2.17;1.10;;;26.00;51.30;;;;;;6126656;23;20395;-81
2022/09/10 09:45:53;;;;;;;2.85;0.90;;;25.50;51.10;;;;;;6125847;23;20100;-81
2022/09/10 09:48:23;;;;;;;4.22;1.63;;;24.50;51.60;;;;;;6126941;23;20033;-80
2022/09/10 09:50:56;;;;;;;5.00;1.40;;;23.70;53.40;;;;;;6127030;23;20646;-80
2022/09/10 09:53:26;;;;;;;2.95;0.90;;;22.90;54.90;;;;;;6126436;23;20481;-80
2022/09/10 09:55:56;;;;;;;2.80;0.90;;;22.50;55.60;;;;;;6153523;23;20097;-80
2022/09/10 09:58:48;;;;;;;3.03;1.20;;;22.70;54.70;;;;;;6153661;23;20029;-79
2022/09/10 10:01:21;;;;;;;10.43;2.08;;;23.20;55.00;;;;;;6146437;23;20022;-79
2022/09/10 10:04:00;;;;;;;0.85;0.68;;;24.00;58.00;;;;;;6152838;23;20021;-79
2022/09/10 10:06:31;;;;;;;4.70;1.13;;;25.60;51.90;;;;;;6126802;23;20471;-81
2022/09/10 10:09:03;;;;;;;1.08;0.98;;;26.90;52.00;;;;;;6153659;23;20041;-80
2022/09/10 10:11:52;;;;;;;4.68;0.90;;;28.00;48.40;;;;;;6152954;23;20022;-80
2022/09/10 10:14:35;;;;;;;3.95;1.10;;;28.50;47.20;;;;;;6151576;23;20034;-80
2022/09/10 10:17:22;;;;;;;;;;;28.50;47.30;;;;;;6102650;23;20112;-81
2022/09/10 10:20:03;;;;;;;4.78;1.17;;;29.30;48.50;;;;;;6126732;23;20011;-80
2022/09/10 10:22:31;;;;;;;3.58;0.95;;;30.20;46.00;;;;;;6153243;23;20109;-80
2022/09/10 10:25:00;;;;;;;2.22;0.90;;;30.60;45.90;;;;;;6126828;23;20025;-80
2022/09/10 10:27:31;;;;;;;2.33;1.10;;;30.70;44.70;;;;;;6152197;23;20305;-80
2022/09/10 10:30:07;;;;;;;2.25;0.93;;;29.70;44.20;;;;;;6152950;23;20030;-79
2022/09/10 10:32:44;;;;;;;1.33;1.10;;;27.70;47.70;;;;;;6126210;23;20025;-80
2022/09/10 10:35:40;;;;;;;2.63;0.95;;;26.40;49.60;;;;;;6152432;23;20447;-80
2022/09/10 10:38:30;;;;;;;1.75;1.10;;;24.50;52.60;;;;;;6114380;23;20195;-79
2022/09/10 10:41:25;;;;;;;7.50;1.50;;;23.20;53.50;;;;;;6152949;23;20414;-80
2022/09/10 10:44:13;;;;;;;1.35;1.25;;;22.20;54.90;;;;;;6137469;23;20031;-79
2022/09/10 10:46:52;;;;;;;3.95;1.40;;;22.20;56.30;;;;;;6149831;23;20040;-80
2022/09/10 10:49:44;;;;;;;3.22;1.60;;;23.30;55.30;;;;;;6101313;23;20028;-74
2022/09/10 10:52:24;;;;;;;2.08;1.60;;;24.10;57.20;;;;;;6151689;23;20025;-72
2022/09/10 10:55:08;;;;;;;1.88;1.40;;;23.90;53.80;;;;;;6125398;23;20041;-72
2022/09/10 10:57:59;;;;;;;5.22;1.70;;;23.30;54.60;;;;;;6151684;23;20790;-73
2022/09/10 11:00:28;;;;;;;2.67;1.30;;;22.40;54.90;;;;;;6152635;23;20026;-80
2022/09/10 11:03:05;;;;;;;1.67;1.50;;;21.80;56.70;;;;;;6152928;23;20029;-80
2022/09/10 11:05:38;;;;;;;2.40;1.25;;;21.60;56.50;;;;;;6152923;23;20025;-74
2022/09/10 11:08:11;;;;;;;2.80;1.67;;;21.80;57.80;;;;;;6126459;23;20021;-74
2022/09/10 11:10:43;;;;;;;2.92;1.77;;;22.40;58.10;;;;;;6152314;23;20022;-73
2022/09/10 11:13:21;;;;;;;2.83;1.77;;;22.50;56.60;;;;;;6152565;23;20083;-74
2022/09/10 11:15:58;;;;;;;1.48;1.38;;;22.50;55.50;;;;;;6152904;23;20032;-74
2022/09/10 11:18:32;;;;;;;1.48;1.13;;;22.30;56.00;;;;;;6153812;23;20032;-74
2022/09/10 11:21:12;;;;;;;3.08;1.17;;;22.00;57.80;;;;;;6125751;23;20108;-72
2022/09/10 11:23:46;;;;;;;4.95;1.77;;;22.50;57.10;;;;;;6102183;23;20023;-76
2022/09/10 11:26:19;;;;;;;1.55;1.40;;;24.00;55.20;;;;;;6155286;23;20025;-81
2022/09/10 11:29:00;;;;;;;2.67;1.40;;;26.20;51.00;;;;;;6156098;23;20028;-73
2022/09/10 11:31:32;;;;;;;1.33;1.23;;;27.00;48.50;;;;;;6154755;23;20025;-80
2022/09/10 11:34:05;;;;;;;2.78;1.20;;;25.70;49.50;;;;;;6152756;23;20104;-74
2022/09/10 11:36:41;;;;;;;2.05;1.30;;;24.30;51.00;;;;;;6152971;23;20028;-81
2022/09/10 11:39:18;;;;;;;2.10;1.30;;;24.40;51.50;;;;;;6128663;23;20025;-80
2022/09/10 11:41:49;;;;;;;5.13;1.15;;;25.20;51.50;;;;;;6151936;23;20466;-73
2022/09/10 11:44:41;;;;;;;2.08;1.13;;;27.20;49.40;;;;;;6152767;23;20112;-72
2022/09/10 11:47:17;;;;;;;2.88;1.70;;;28.60;47.00;;;;;;6153333;23;20013;-79
2022/09/10 11:49:53;;;;;;;1.55;1.10;;;28.10;47.90;;;;;;6154060;23;20136;-80
2022/09/10 11:52:24;;;;;;;2.88;1.42;;;28.40;45.50;;;;;;6151694;23;20017;-77
2022/09/10 11:54:53;;;;;;;2.28;1.10;;;26.70;47.80;;;;;;6151523;23;20030;-80
2022/09/10 11:57:34;;;;;;;3.83;1.35;;;24.90;50.20;;;;;;6152752;23;20482;-77
2022/09/10 12:00:14;;;;;;;3.85;1.48;;;25.50;51.10;;;;;;6153006;23;20025;-77
2022/09/10 12:03:33;;;;;;;3.08;2.00;;;27.20;50.10;;;;;;6153319;23;20056;-73
2022/09/10 12:06:07;;;;;;;2.75;1.42;;;29.10;46.80;;;;;;6128739;23;20048;-73
2022/09/10 12:08:54;;;;;;;1.73;1.25;;;29.40;46.40;;;;;;6152836;23;20028;-74
2022/09/10 12:11:30;;;;;;;5.55;1.70;;;28.20;47.20;;;;;;6152709;23;20028;-75
2022/09/10 12:13:58;;;;;;;1.40;1.30;;;26.90;47.90;;;;;;6152949;23;20026;-74
2022/09/10 12:16:35;;;;;;;1.77;1.50;;;25.60;48.70;;;;;;6152470;23;20447;-75
2022/09/10 12:19:08;;;;;;;2.30;1.60;;;24.60;50.70;;;;;;6101779;23;20017;-74
2022/09/10 12:21:41;;;;;;;3.65;1.80;;;23.70;52.10;;;;;;6127192;23;20029;-74
2022/09/10 12:24:27;;;;;;;1.48;1.17;;;23.10;53.40;;;;;;6152304;23;20324;-73
2022/09/10 12:26:55;;;;;;;3.75;1.50;;;22.60;54.10;;;;;;6152150;23;20025;-73
2022/09/10 12:29:35;;;;;;;4.25;1.52;;;22.10;55.30;;;;;;6152776;23;20021;-73
2022/09/10 12:32:37;;;;;;;4.90;1.98;;;21.90;56.20;;;;;;6152100;23;20045;-72
2022/09/10 12:35:44;;;;;;;4.40;2.03;;;22.50;55.80;;;;;;6124153;23;20032;-70
2022/09/10 12:38:48;;;;;;;3.88;2.00;;;22.40;57.10;;;;;;6106588;23;20025;-71
2022/09/10 12:41:58;;;;;;;8.70;2.40;;;21.90;58.20;;;;;;6126584;23;20363;-70
2022/09/10 12:44:45;;;;;;;5.18;1.45;;;21.40;59.60;;;;;;6152237;23;20029;-71
2022/09/10 12:47:49;;;;;;;4.78;3.33;;;21.70;58.90;;;;;;6149807;23;20021;-69
2022/09/10 12:50:39;;;;;;;1.63;1.10;;;23.50;57.10;;;;;;6151064;23;20031;-71
2022/09/10 12:53:55;;;;;;;5.43;1.60;;;25.90;54.70;;;;;;6149271;23;20029;-70
2022/09/10 12:57:14;;;;;;;2.10;1.67;;;27.50;51.50;;;;;;6122992;23;20029;-71
2022/09/10 13:00:16;;;;;;;5.13;1.40;;;26.90;51.30;;;;;;6146451;23;20111;-71
2022/09/10 13:02:51;;;;;;;1.60;1.35;;;25.30;53.90;;;;;;6121192;23;20439;-70
2022/09/10 13:05:26;;;;;;;1.77;1.20;;;24.60;56.30;;;;;;6151389;23;20077;-70
2022/09/10 13:08:17;;;;;;;3.42;1.92;;;24.40;54.70;;;;;;6124609;23;20049;-71
2022/09/10 13:10:48;;;;;;;4.30;1.25;;;24.30;53.60;;;;;;6149609;23;20032;-69
2022/09/10 13:13:34;;;;;;;1.83;1.73;;;26.30;50.60;;;;;;6151109;23;20459;-70
2022/09/10 13:16:03;;;;;;;2.90;1.00;;;28.60;48.40;;;;;;6151969;23;20026;-70